Time;durP1;ratioP1;P1;durP2;ratioP2;P2;SDS_P1;SDS_P2;PMS_P1;PMS_P2;Temp;Humidity;BMP_temperature;BMP_pressure;BME280_temperature;BME280_humidity;BME280_pressure;Samples;Min_cycle;Max_cycle;Signal;HPM_P1;HPM_P2
2024/01/15 00:00:59;;;;;;;1343.35;999.90;;;26.90;99.90;;;;;;5073470;28;20027;-70
2024/01/15 00:03:26;;;;;;;1333.80;999.90;;;27.00;99.90;;;;;;5073393;28;20045;-70
2024/01/15 00:05:52;;;;;;;1362.45;999.90;;;27.10;99.90;;;;;;5073651;28;20025;-72
2024/01/15 00:08:19;;;;;;;1328.68;999.90;;;27.10;99.90;;;;;;5073477;28;20028;-71
2024/01/15 00:10:45;;;;;;;1390.72;999.90;;;27.10;99.90;;;;;;5073357;28;20021;-70
2024/01/15 00:13:12;;;;;;;1373.20;999.90;;;27.20;99.90;;;;;;5073531;28;20090;-71
2024/01/15 00:15:38;;;;;;;1323.38;999.90;;;27.20;99.90;;;;;;5073345;28;20025;-70
2024/01/15 00:18:05;;;;;;;1356.97;999.90;;;27.10;99.90;;;;;;5073843;28;20054;-70
2024/01/15 00:20:32;;;;;;;1346.00;999.90;;;27.10;99.90;;;;;;5072110;28;20440;-71
2024/01/15 00:22:58;;;;;;;1320.18;999.90;;;27.00;99.90;;;;;;5073117;28;20128;-70
2024/01/15 00:25:25;;;;;;;1352.13;999.90;;;27.00;99.90;;;;;;5073183;28;20019;-71
2024/01/15 00:27:51;;;;;;;1337.72;999.90;;;27.00;99.90;;;;;;5073271;28;20074;-70
2024/01/15 00:30:18;;;;;;;1360.88;999.90;;;27.00;99.90;;;;;;5073302;28;20382;-71
2024/01/15 00:32:44;;;;;;;1323.30;999.90;;;27.00;99.90;;;;;;5073139;28;20021;-71
2024/01/15 00:35:11;;;;;;;1349.57;999.90;;;27.10;99.90;;;;;;5073228;28;20021;-71
2024/01/15 00:37:37;;;;;;;1348.38;999.90;;;27.10;99.90;;;;;;5073189;28;20052;-71
2024/01/15 00:40:05;;;;;;;1348.60;999.90;;;27.20;99.90;;;;;;5073109;28;20033;-71
2024/01/15 00:42:32;;;;;;;1352.22;999.90;;;27.20;99.90;;;;;;5073166;28;20381;-70
2024/01/15 00:44:58;;;;;;;1348.95;999.90;;;27.20;99.90;;;;;;5076924;28;20021;-70
2024/01/15 00:47:25;;;;;;;1350.78;999.90;;;27.20;99.90;;;;;;5077066;28;20053;-69
2024/01/15 00:49:51;;;;;;;1325.10;999.90;;;27.20;99.90;;;;;;5077099;28;20012;-70
2024/01/15 00:52:18;;;;;;;1350.50;999.90;;;27.20;99.90;;;;;;5077011;28;20029;-71
2024/01/15 00:54:44;;;;;;;1345.68;999.90;;;27.20;99.90;;;;;;5076882;28;20100;-70
2024/01/15 00:57:11;;;;;;;1353.50;999.90;;;27.20;99.90;;;;;;5076939;28;20409;-71
2024/01/15 00:59:37;;;;;;;1325.40;999.90;;;27.20;99.90;;;;;;5076970;28;20031;-70
2024/01/15 01:02:04;;;;;;;1344.40;999.90;;;27.20;99.90;;;;;;5076795;28;20017;-69
2024/01/15 01:04:31;;;;;;;1326.68;999.90;;;27.10;99.90;;;;;;5075531;28;20372;-70
2024/01/15 01:06:57;;;;;;;1360.40;999.90;;;27.20;99.90;;;;;;5076721;28;20040;-70
2024/01/15 01:09:24;;;;;;;1353.80;999.90;;;27.20;99.90;;;;;;5076698;28;20070;-71
2024/01/15 01:11:50;;;;;;;1339.70;999.90;;;27.20;99.90;;;;;;5076901;28;20527;-70
2024/01/15 01:14:17;;;;;;;1334.28;999.90;;;27.20;99.90;;;;;;5060200;28;20037;-70
2024/01/15 01:16:44;;;;;;;1342.00;999.90;;;27.20;99.90;;;;;;5056656;28;20044;-70
2024/01/15 01:19:10;;;;;;;1314.60;999.90;;;27.20;99.90;;;;;;5056410;28;20021;-71
2024/01/15 01:21:37;;;;;;;1343.30;999.90;;;27.30;99.90;;;;;;5056161;28;20516;-70
2024/01/15 01:24:03;;;;;;;1341.22;999.90;;;27.30;99.90;;;;;;5059543;28;20021;-70
2024/01/15 01:26:31;;;;;;;1353.35;999.90;;;27.30;99.90;;;;;;5064064;28;20521;-70
2024/01/15 01:28:57;;;;;;;1354.03;999.90;;;27.30;99.90;;;;;;5056358;28;20021;-71
2024/01/15 01:31:24;;;;;;;1329.97;999.90;;;27.40;99.90;;;;;;5057039;28;20106;-71
2024/01/15 01:33:50;;;;;;;1357.68;999.90;;;27.40;99.90;;;;;;5066098;28;20067;-71
2024/01/15 01:36:17;;;;;;;1349.38;999.90;;;27.40;99.90;;;;;;5067867;28;20343;-71
2024/01/15 01:38:44;;;;;;;1314.18;999.90;;;27.40;99.90;;;;;;5056215;28;20362;-70
2024/01/15 01:41:10;;;;;;;1333.15;999.90;;;27.40;99.90;;;;;;5061463;28;20027;-70
2024/01/15 01:43:37;;;;;;;1358.28;999.90;;;27.40;99.90;;;;;;5076141;28;20104;-71
2024/01/15 01:46:04;;;;;;;1355.25;999.90;;;27.40;99.90;;;;;;5075797;28;20021;-71
2024/01/15 01:48:31;;;;;;;1350.65;999.90;;;27.40;99.90;;;;;;5075851;28;20103;-72
2024/01/15 01:51:00;;;;;;;1353.15;999.90;;;27.40;99.90;;;;;;5076090;28;20027;-68
2024/01/15 01:53:28;;;;;;;1355.03;999.90;;;27.40;99.90;;;;;;5075885;28;20024;-69
2024/01/15 01:55:56;;;;;;;1361.72;999.90;;;27.40;99.90;;;;;;5075430;28;20016;-68
2024/01/15 01:58:22;;;;;;;1359.00;999.90;;;27.40;99.90;;;;;;5075941;28;20388;-68
2024/01/15 02:00:49;;;;;;;1359.50;999.90;;;27.50;99.90;;;;;;5075874;28;20091;-68
2024/01/15 02:03:16;;;;;;;1360.07;999.90;;;27.50;99.90;;;;;;5075620;28;20031;-67
2024/01/15 02:05:46;;;;;;;1361.68;999.90;;;27.50;99.90;;;;;;5075767;28;20420;-68
2024/01/15 02:08:12;;;;;;;1359.07;999.90;;;27.50;99.90;;;;;;5075700;28;20526;-68
2024/01/15 02:10:39;;;;;;;1359.95;999.90;;;27.50;99.90;;;;;;5075590;28;20063;-68
2024/01/15 02:13:05;;;;;;;1364.32;999.90;;;27.50;99.90;;;;;;5074298;28;20063;-68
2024/01/15 02:15:32;;;;;;;1348.28;999.90;;;27.50;99.90;;;;;;5074191;28;20029;-69
2024/01/15 02:18:07;;;;;;;1354.72;999.90;;;27.40;99.90;;;;;;5074073;28;20489;-68
2024/01/15 02:20:33;;;;;;;1333.88;999.90;;;27.40;99.90;;;;;;5075462;28;20112;-68
2024/01/15 02:23:15;;;;;;;1353.70;999.90;;;27.50;99.90;;;;;;5075373;28;20036;-67
2024/01/15 02:25:45;;;;;;;1358.38;999.90;;;27.50;99.90;;;;;;5055671;28;20074;-68
2024/01/15 02:28:14;;;;;;;1349.82;999.90;;;27.50;99.90;;;;;;5055367;28;20052;-68
2024/01/15 02:30:42;;;;;;;1356.15;999.90;;;27.50;99.90;;;;;;5067995;28;20078;-69
2024/01/15 02:33:09;;;;;;;1346.40;999.90;;;27.60;99.90;;;;;;5075475;28;20112;-68
2024/01/15 02:35:37;;;;;;;1347.07;999.90;;;27.60;99.90;;;;;;5075324;28;20472;-69
2024/01/15 02:38:06;;;;;;;1343.75;999.90;;;27.70;99.90;;;;;;5075180;28;20024;-66
2024/01/15 02:40:33;;;;;;;1354.00;999.90;;;27.70;99.90;;;;;;5075233;28;20028;-67
2024/01/15 02:42:59;;;;;;;1362.47;999.90;;;27.70;99.90;;;;;;5073672;28;20036;-70
2024/01/15 02:45:26;;;;;;;1355.95;999.90;;;27.70;99.90;;;;;;5075176;28;20492;-68
2024/01/15 02:47:53;;;;;;;1322.95;999.90;;;27.70;99.90;;;;;;5075069;28;20017;-71
2024/01/15 02:50:19;;;;;;;1359.47;999.90;;;27.70;99.90;;;;;;5075193;28;20028;-71
2024/01/15 02:52:46;;;;;;;1314.90;999.90;;;27.70;99.90;;;;;;5074249;28;20147;-70
2024/01/15 02:55:12;;;;;;;1366.25;999.90;;;27.70;99.90;;;;;;5063278;28;20021;-69
2024/01/15 02:57:39;;;;;;;1355.28;999.90;;;27.70;99.90;;;;;;5064414;28;20032;-68
2024/01/15 03:00:07;;;;;;;1343.63;999.90;;;27.80;99.90;;;;;;5060441;28;20047;-71
2024/01/15 03:02:39;;;;;;;1315.30;999.90;;;27.80;99.90;;;;;;5070662;28;20115;-66
2024/01/15 03:05:08;;;;;;;1314.75;999.90;;;27.80;99.90;;;;;;5068599;28;20048;-66
2024/01/15 03:07:34;;;;;;;1347.82;999.90;;;27.80;99.90;;;;;;5066233;28;20031;-67
2024/01/15 03:10:01;;;;;;;1319.45;999.90;;;27.80;99.90;;;;;;5063360;28;20067;-67
2024/01/15 03:12:28;;;;;;;1346.15;999.90;;;27.80;99.90;;;;;;5064698;28;20017;-68
2024/01/15 03:14:54;;;;;;;1356.15;999.90;;;27.80;99.90;;;;;;5071033;28;20021;-69
2024/01/15 03:17:21;;;;;;;1347.78;999.90;;;27.90;99.90;;;;;;5063015;28;20083;-68
2024/01/15 03:19:49;;;;;;;1298.22;999.90;;;27.90;99.90;;;;;;5064357;28;20020;-68
2024/01/15 03:22:16;;;;;;;1350.03;999.90;;;27.90;99.90;;;;;;5063035;28;20060;-69
2024/01/15 03:24:43;;;;;;;1324.13;999.90;;;27.90;99.90;;;;;;5063226;28;20044;-70
2024/01/15 03:27:10;;;;;;;1312.15;999.90;;;27.90;99.90;;;;;;5064736;28;20021;-70
2024/01/15 03:29:36;;;;;;;1358.30;999.90;;;28.00;99.90;;;;;;5057428;28;20466;-68
2024/01/15 03:32:03;;;;;;;1356.78;999.90;;;28.00;99.90;;;;;;5059630;28;20382;-67
2024/01/15 03:34:29;;;;;;;1345.43;999.90;;;28.00;99.90;;;;;;5062788;28;20048;-68
2024/01/15 03:36:56;;;;;;;1356.93;999.90;;;28.10;99.90;;;;;;5062338;28;20027;-68
2024/01/15 03:39:22;;;;;;;1293.68;999.90;;;28.10;99.90;;;;;;5064118;28;20020;-67
2024/01/15 03:41:49;;;;;;;1322.55;999.90;;;28.20;99.90;;;;;;5062367;28;20103;-69
2024/01/15 03:44:15;;;;;;;1334.60;999.90;;;28.20;99.90;;;;;;5061886;28;20009;-70
2024/01/15 03:46:42;;;;;;;1365.38;999.90;;;28.30;99.90;;;;;;5063767;28;20020;-69
2024/01/15 03:49:08;;;;;;;1287.22;999.90;;;28.30;99.90;;;;;;5063533;28;20690;-68
2024/01/15 03:51:35;;;;;;;1345.70;999.90;;;28.40;99.90;;;;;;5062217;28;20032;-68
2024/01/15 03:54:01;;;;;;;1348.30;999.90;;;28.40;99.90;;;;;;5064079;28;20044;-69
2024/01/15 03:56:28;;;;;;;1334.38;999.90;;;28.40;99.90;;;;;;5063386;28;20043;-71
2024/01/15 03:58:54;;;;;;;1307.40;999.90;;;28.40;99.90;;;;;;5062176;28;20032;-70
2024/01/15 04:01:21;;;;;;;1347.70;999.90;;;28.50;99.90;;;;;;5062326;28;20103;-67
2024/01/15 04:03:47;;;;;;;1351.40;999.90;;;28.50;99.90;;;;;;5063169;28;20016;-67
2024/01/15 04:06:14;;;;;;;1348.38;999.90;;;28.50;99.90;;;;;;5064078;28;20025;-68
2024/01/15 04:08:40;;;;;;;1352.93;999.90;;;28.60;99.90;;;;;;5062809;28;20470;-68
2024/01/15 04:11:07;;;;;;;1360.05;999.90;;;28.60;99.90;;;;;;5063161;28;20044;-68
2024/01/15 04:13:33;;;;;;;1313.10;999.90;;;28.60;99.90;;;;;;5062189;28;20023;-68
2024/01/15 04:16:00;;;;;;;1344.47;999.90;;;28.70;99.90;;;;;;5061918;28;20021;-69
2024/01/15 04:18:27;;;;;;;1357.90;999.90;;;28.90;99.90;;;;;;5062902;28;20025;-68
2024/01/15 04:20:54;;;;;;;1342.03;999.90;;;29.00;99.90;;;;;;5063607;28;20028;-68
2024/01/15 04:23:20;;;;;;;1303.45;999.90;;;29.10;99.90;;;;;;5061737;28;20025;-67
2024/01/15 04:25:47;;;;;;;1347.72;999.90;;;29.20;99.90;;;;;;5063050;28;20016;-66
2024/01/15 04:28:13;;;;;;;1357.40;999.90;;;29.30;99.90;;;;;;5063663;28;20382;-70
2024/01/15 04:30:40;;;;;;;1355.13;999.90;;;29.20;99.90;;;;;;5061828;28;20017;-68
2024/01/15 04:33:06;;;;;;;1359.15;999.90;;;29.30;99.90;;;;;;5062925;28;20099;-71
2024/01/15 04:35:34;;;;;;;1360.07;999.90;;;29.40;99.90;;;;;;5063579;28;20029;-70
2024/01/15 04:38:01;;;;;;;1365.43;999.90;;;29.40;99.90;;;;;;5061919;28;20378;-69
2024/01/15 04:40:27;;;;;;;1276.72;999.90;;;29.50;99.90;;;;;;5062816;28;20032;-70
2024/01/15 04:42:54;;;;;;;1337.57;999.90;;;29.50;99.90;;;;;;5063446;28;20074;-68
2024/01/15 04:45:22;;;;;;;1359.05;999.90;;;29.50;99.90;;;;;;5061709;28;20017;-69
2024/01/15 04:47:49;;;;;;;1272.95;999.90;;;29.60;99.90;;;;;;5062597;28;20125;-69
2024/01/15 04:50:16;;;;;;;1359.22;999.90;;;29.50;99.90;;;;;;5063610;28;20267;-68
2024/01/15 04:52:42;;;;;;;1268.32;999.90;;;29.60;99.90;;;;;;5061740;28;20104;-70
2024/01/15 04:55:09;;;;;;;1358.93;999.90;;;29.70;99.90;;;;;;5062502;28;20111;-67
2024/01/15 04:57:35;;;;;;;1358.82;999.90;;;29.70;99.90;;;;;;5063514;28;20396;-68
2024/01/15 05:00:02;;;;;;;1356.90;999.90;;;29.90;99.90;;;;;;5061574;28;20443;-68
2024/01/15 05:02:29;;;;;;;1361.78;999.90;;;29.90;99.90;;;;;;5062399;28;20020;-69
2024/01/15 05:04:55;;;;;;;1351.85;999.90;;;29.90;99.90;;;;;;5063486;28;20028;-68
2024/01/15 05:07:22;;;;;;;1299.35;999.90;;;29.90;99.90;;;;;;5061519;28;20096;-68
2024/01/15 05:09:48;;;;;;;1301.88;999.90;;;29.80;99.90;;;;;;5062245;28;20055;-68
2024/01/15 05:12:15;;;;;;;1360.45;999.90;;;29.80;99.90;;;;;;5056819;28;20131;-69
2024/01/15 05:14:41;;;;;;;1301.47;999.90;;;29.80;99.90;;;;;;5062764;28;20424;-69
2024/01/15 05:17:08;;;;;;;1294.57;999.90;;;29.80;99.90;;;;;;5062315;28;20400;-69
2024/01/15 05:19:35;;;;;;;1362.22;999.90;;;29.80;99.90;;;;;;5061631;28;20104;-70
2024/01/15 05:22:01;;;;;;;1359.03;999.90;;;29.80;99.90;;;;;;5057759;28;20076;-68
2024/01/15 05:24:28;;;;;;;1357.45;999.90;;;29.80;99.90;;;;;;5061749;28;20056;-69
2024/01/15 05:26:54;;;;;;;1363.47;999.90;;;29.80;99.90;;;;;;5052646;28;20100;-67
2024/01/15 05:29:21;;;;;;;1360.75;999.90;;;29.80;99.90;;;;;;5053673;28;20050;-67
2024/01/15 05:31:47;;;;;;;1362.00;999.90;;;29.80;99.90;;;;;;5055554;28;20029;-69
2024/01/15 05:34:14;;;;;;;1359.30;999.90;;;29.70;99.90;;;;;;5061464;28;20040;-71
2024/01/15 05:36:40;;;;;;;1359.30;999.90;;;29.70;99.90;;;;;;5065121;28;20090;-68
2024/01/15 05:39:07;;;;;;;1361.75;999.90;;;29.60;99.90;;;;;;5065536;28;20017;-70
2024/01/15 05:41:34;;;;;;;1363.13;999.90;;;29.50;99.90;;;;;;5066699;28;20056;-69
2024/01/15 05:44:00;;;;;;;1360.28;999.90;;;29.50;99.90;;;;;;5065204;28;20373;-71
2024/01/15 05:46:27;;;;;;;1356.75;999.90;;;29.50;99.90;;;;;;5065516;28;20406;-69
2024/01/15 05:48:53;;;;;;;1321.28;999.90;;;29.50;99.90;;;;;;5066550;28;20087;-70
2024/01/15 05:51:20;;;;;;;1270.88;999.90;;;29.50;99.90;;;;;;5064684;28;20013;-70
2024/01/15 05:53:46;;;;;;;1354.22;999.90;;;29.60;99.90;;;;;;5065416;28;20099;-69
2024/01/15 05:56:13;;;;;;;1356.90;999.90;;;29.70;99.90;;;;;;5065338;28;20025;-70
2024/01/15 05:58:39;;;;;;;1364.80;999.90;;;29.80;99.90;;;;;;5064368;28;20016;-70
2024/01/15 06:01:06;;;;;;;1370.38;999.90;;;29.90;99.90;;;;;;5065279;28;20040;-68
2024/01/15 06:03:32;;;;;;;1355.03;999.90;;;30.00;99.90;;;;;;5064513;28;20017;-68
2024/01/15 06:05:59;;;;;;;1362.88;999.90;;;30.00;99.90;;;;;;5066865;28;20024;-69
2024/01/15 06:08:27;;;;;;;1328.82;999.90;;;30.00;99.90;;;;;;5064912;28;20032;-69
2024/01/15 06:10:56;;;;;;;1306.28;999.90;;;30.00;99.90;;;;;;5064285;28;20020;-70
2024/01/15 06:13:22;;;;;;;1368.15;999.90;;;30.10;99.90;;;;;;5064496;28;20393;-69
2024/01/15 06:15:49;;;;;;;1360.13;999.90;;;30.20;99.90;;;;;;5065308;28;20021;-69
2024/01/15 06:18:15;;;;;;;1332.90;999.90;;;30.20;99.90;;;;;;5064034;28;20104;-70
2024/01/15 06:20:42;;;;;;;1361.60;999.90;;;30.20;99.90;;;;;;5063063;28;20111;-69
2024/01/15 06:23:09;;;;;;;1321.60;999.90;;;30.10;99.90;;;;;;5061785;28;20138;-68
2024/01/15 06:25:35;;;;;;;1369.88;999.90;;;30.20;99.90;;;;;;5062084;28;20025;-68
2024/01/15 06:28:02;;;;;;;1361.82;999.90;;;30.10;99.90;;;;;;5063968;28;20045;-68
2024/01/15 06:30:29;;;;;;;1307.80;999.90;;;30.20;99.90;;;;;;5066592;28;20013;-69
2024/01/15 06:32:56;;;;;;;1283.50;999.90;;;30.20;99.90;;;;;;5056991;28;20024;-67
2024/01/15 06:35:22;;;;;;;1288.03;999.90;;;30.30;99.90;;;;;;5062153;28;20032;-68
2024/01/15 06:37:49;;;;;;;1313.38;999.90;;;30.50;99.90;;;;;;5066971;28;20058;-69
2024/01/15 06:40:15;;;;;;;1298.80;999.90;;;30.60;99.90;;;;;;5066972;28;20035;-67
2024/01/15 06:42:42;;;;;;;1364.78;999.90;;;30.60;99.90;;;;;;5066191;28;20025;-68
2024/01/15 06:45:09;;;;;;;1361.90;999.90;;;30.80;99.90;;;;;;5062867;28;20028;-68
2024/01/15 06:47:35;;;;;;;1341.72;999.90;;;30.90;99.90;;;;;;5062670;28;20016;-67
2024/01/15 06:50:02;;;;;;;1320.03;999.90;;;30.80;99.90;;;;;;5062719;28;20013;-69
2024/01/15 06:52:29;;;;;;;1304.60;999.90;;;30.80;99.90;;;;;;5064945;28;20104;-69
2024/01/15 06:54:55;;;;;;;1360.63;999.90;;;30.90;99.90;;;;;;5065132;28;20067;-68
2024/01/15 06:57:21;;;;;;;1305.35;999.90;;;31.00;99.90;;;;;;5065368;28;20032;-68
2024/01/15 06:59:48;;;;;;;1305.43;999.90;;;31.10;99.90;;;;;;5064619;28;20021;-68
2024/01/15 07:02:14;;;;;;;1327.22;999.90;;;31.20;99.90;;;;;;5063062;28;20029;-69
2024/01/15 07:04:41;;;;;;;1360.22;999.90;;;31.30;99.90;;;;;;5062741;28;20070;-68
2024/01/15 07:07:07;;;;;;;1354.15;999.90;;;31.20;99.90;;;;;;5062940;28;20021;-68
2024/01/15 07:09:34;;;;;;;1370.35;999.90;;;31.20;99.90;;;;;;5062960;28;20047;-68
2024/01/15 07:12:00;;;;;;;1347.43;999.90;;;31.30;99.90;;;;;;5062462;28;20060;-67
2024/01/15 07:14:27;;;;;;;1305.50;999.90;;;31.30;99.90;;;;;;5063565;28;20031;-68
2024/01/15 07:16:53;;;;;;;1334.43;999.90;;;31.30;99.90;;;;;;5062789;28;20470;-67
2024/01/15 07:19:20;;;;;;;1324.68;999.90;;;31.30;99.90;;;;;;5063532;28;20040;-68
2024/01/15 07:21:46;;;;;;;1352.05;999.90;;;31.40;99.90;;;;;;5062563;28;20033;-68
2024/01/15 07:24:13;;;;;;;1360.72;999.90;;;31.30;99.90;;;;;;5062893;28;20526;-68
2024/01/15 07:26:40;;;;;;;1327.18;999.90;;;31.30;99.90;;;;;;5062786;28;20036;-69
2024/01/15 07:29:06;;;;;;;1303.47;999.90;;;31.20;99.90;;;;;;5063686;28;20008;-70
2024/01/15 07:31:33;;;;;;;1331.78;999.90;;;31.30;99.90;;;;;;5061826;28;20238;-68
2024/01/15 07:34:00;;;;;;;1308.93;999.90;;;31.30;99.90;;;;;;5055714;28;20093;-69
2024/01/15 07:36:26;;;;;;;1358.32;999.90;;;31.40;99.90;;;;;;5054193;28;20374;-70
2024/01/15 07:38:53;;;;;;;1355.30;999.90;;;31.30;99.90;;;;;;5058282;28;20091;-71
2024/01/15 07:41:19;;;;;;;1337.28;999.90;;;31.30;99.90;;;;;;5068542;28;20604;-68
2024/01/15 07:43:46;;;;;;;1357.50;999.90;;;31.20;99.90;;;;;;5065754;28;20036;-67
2024/01/15 07:46:12;;;;;;;1296.80;999.90;;;31.10;99.90;;;;;;5070507;28;20021;-69
2024/01/15 07:48:39;;;;;;;1300.95;999.90;;;31.10;99.90;;;;;;5070161;28;20143;-67
2024/01/15 07:51:05;;;;;;;1330.13;999.90;;;31.00;99.90;;;;;;5063982;28;20104;-69
2024/01/15 07:53:32;;;;;;;1301.00;999.90;;;31.00;99.90;;;;;;5061155;28;20013;-67
2024/01/15 07:55:58;;;;;;;1344.05;999.90;;;31.00;99.90;;;;;;5063268;28;20101;-74
2024/01/15 07:58:25;;;;;;;1356.55;999.90;;;31.00;99.90;;;;;;5064979;28;20017;-73
2024/01/15 08:00:52;;;;;;;1324.72;999.90;;;31.10;99.90;;;;;;5064234;28;20032;-77
2024/01/15 08:03:18;;;;;;;1315.40;999.90;;;31.20;99.90;;;;;;5059605;28;20024;-74
2024/01/15 08:05:45;;;;;;;1307.15;999.90;;;31.30;99.90;;;;;;5064796;28;20492;-73
2024/01/15 08:08:11;;;;;;;1344.40;999.90;;;31.40;99.90;;;;;;5071242;28;20036;-74
2024/01/15 08:10:38;;;;;;;1365.40;999.90;;;31.50;99.90;;;;;;5064097;28;20019;-72
2024/01/15 08:13:07;;;;;;;1351.20;999.90;;;31.60;99.90;;;;;;5064242;28;20485;-73
2024/01/15 08:15:34;;;;;;;1359.63;999.90;;;31.60;99.90;;;;;;5062086;28;20021;-74
2024/01/15 08:18:00;;;;;;;1348.78;999.90;;;31.60;99.90;;;;;;5060691;28;20083;-73
2024/01/15 08:20:27;;;;;;;1344.80;999.90;;;31.50;99.90;;;;;;5063082;28;20020;-73
2024/01/15 08:22:53;;;;;;;1307.13;999.90;;;31.50;99.90;;;;;;5063499;28;20179;-73
2024/01/15 08:25:20;;;;;;;1355.38;999.90;;;31.50;99.90;;;;;;5061610;28;20023;-69
2024/01/15 08:27:46;;;;;;;1359.18;999.90;;;31.50;99.90;;;;;;5063007;28;20462;-69
2024/01/15 08:30:13;;;;;;;1331.13;999.90;;;31.50;99.90;;;;;;5063387;28;20025;-69
2024/01/15 08:32:42;;;;;;;1330.15;999.90;;;31.60;99.90;;;;;;5061480;28;20116;-69
2024/01/15 08:35:09;;;;;;;1360.63;999.90;;;31.60;99.90;;;;;;5062588;28;20057;-69
2024/01/15 08:37:36;;;;;;;1315.03;999.90;;;31.60;99.90;;;;;;5063676;28;20113;-71
2024/01/15 08:40:03;;;;;;;1357.72;999.90;;;31.60;99.90;;;;;;5061749;28;20017;-68
2024/01/15 08:42:29;;;;;;;1352.55;999.90;;;31.60;99.90;;;;;;5062395;28;20024;-67
2024/01/15 08:44:56;;;;;;;1349.38;999.90;;;31.60;99.90;;;;;;5063616;28;20555;-68
2024/01/15 08:47:22;;;;;;;1305.63;999.90;;;31.60;99.90;;;;;;5061685;28;20022;-73
2024/01/15 08:49:49;;;;;;;1296.45;999.90;;;31.60;99.90;;;;;;5062538;28;20095;-75
2024/01/15 08:52:16;;;;;;;1296.25;999.90;;;31.60;99.90;;;;;;5063652;28;20032;-73
2024/01/15 08:54:42;;;;;;;1335.18;999.90;;;31.60;99.90;;;;;;5061709;28;20017;-74
2024/01/15 08:57:09;;;;;;;1361.28;999.90;;;31.70;99.90;;;;;;5062461;28;20017;-74
2024/01/15 08:59:35;;;;;;;1335.28;999.90;;;31.70;99.90;;;;;;5055633;28;20103;-70
2024/01/15 09:02:02;;;;;;;1315.75;999.90;;;31.70;99.90;;;;;;5052808;28;20394;-69
2024/01/15 09:04:28;;;;;;;1342.13;999.90;;;31.70;99.90;;;;;;5054172;28;20540;-69
2024/01/15 09:06:55;;;;;;;1298.68;999.90;;;31.70;99.90;;;;;;5056827;28;20148;-69
2024/01/15 09:09:22;;;;;;;1356.60;999.90;;;31.60;99.90;;;;;;5059315;28;20028;-70
2024/01/15 09:11:48;;;;;;;1363.90;999.90;;;31.60;99.90;;;;;;5076039;28;20035;-68
2024/01/15 09:14:15;;;;;;;1354.78;999.90;;;31.60;99.90;;;;;;5076568;28;20028;-70
2024/01/15 09:16:41;;;;;;;1331.80;999.90;;;31.60;99.90;;;;;;5069770;28;20085;-70
2024/01/15 09:19:08;;;;;;;1303.68;999.90;;;31.60;99.90;;;;;;5062469;28;20051;-68
2024/01/15 09:21:34;;;;;;;1344.68;999.90;;;31.60;99.90;;;;;;5072357;28;20040;-69
2024/01/15 09:24:01;;;;;;;1358.18;999.90;;;31.60;99.90;;;;;;5074110;28;20020;-69
2024/01/15 09:26:27;;;;;;;1355.68;999.90;;;31.60;99.90;;;;;;5057631;28;20021;-71
2024/01/15 09:28:54;;;;;;;1361.13;999.90;;;31.60;99.90;;;;;;5056149;28;20100;-73
2024/01/15 09:31:21;;;;;;;1339.03;999.90;;;31.60;99.90;;;;;;5064086;28;20016;-73
2024/01/15 09:33:51;;;;;;;1318.22;999.90;;;31.50;99.90;;;;;;5070695;28;20017;-71
2024/01/15 09:36:18;;;;;;;1340.50;999.90;;;31.40;99.90;;;;;;5064614;28;20058;-72
2024/01/15 09:38:45;;;;;;;1358.47;999.90;;;31.30;99.90;;;;;;5064427;28;20017;-74
2024/01/15 09:41:12;;;;;;;1300.55;999.90;;;31.20;99.90;;;;;;5067172;28;20025;-73
2024/01/15 09:43:39;;;;;;;1367.25;999.90;;;31.10;99.90;;;;;;5066363;28;20021;-73
2024/01/15 09:46:06;;;;;;;1354.20;999.90;;;31.10;99.90;;;;;;5064713;28;20013;-74
2024/01/15 09:48:34;;;;;;;1358.13;999.90;;;31.00;99.90;;;;;;5066102;28;20469;-72
2024/01/15 09:51:02;;;;;;;1352.03;999.90;;;31.00;99.90;;;;;;5066451;28;20025;-74
2024/01/15 09:53:29;;;;;;;1325.70;999.90;;;30.90;99.90;;;;;;5063646;28;20090;-69
2024/01/15 09:55:56;;;;;;;1362.95;999.90;;;30.80;99.90;;;;;;5065230;28;20020;-69
2024/01/15 09:58:24;;;;;;;1360.82;999.90;;;30.80;99.90;;;;;;5066344;28;20032;-70
2024/01/15 10:00:52;;;;;;;1312.20;999.90;;;30.70;99.90;;;;;;5063886;28;20493;-70
2024/01/15 10:03:18;;;;;;;1361.65;999.90;;;30.80;99.90;;;;;;5055936;28;20021;-76
2024/01/15 10:05:45;;;;;;;1283.70;999.90;;;30.70;99.90;;;;;;5073647;28;20024;-70
2024/01/15 10:08:12;;;;;;;1364.93;999.90;;;30.70;99.90;;;;;;5056425;28;20025;-70
2024/01/15 10:10:38;;;;;;;1359.13;999.90;;;30.60;99.90;;;;;;5061995;28;20024;-69
2024/01/15 10:13:06;;;;;;;1351.63;999.90;;;30.50;99.90;;;;;;5074907;28;20035;-68
2024/01/15 10:15:36;;;;;;;1331.55;999.90;;;30.40;99.90;;;;;;5074903;28;20104;-70
2024/01/15 10:18:03;;;;;;;1356.47;999.90;;;30.40;99.90;;;;;;5075428;28;20036;-70
2024/01/15 10:20:32;;;;;;;1343.15;999.90;;;30.40;99.90;;;;;;5075389;28;20172;-69
2024/01/15 10:22:59;;;;;;;1363.85;999.90;;;30.30;99.90;;;;;;5075381;28;20119;-69
2024/01/15 10:25:25;;;;;;;1363.38;999.90;;;30.30;99.90;;;;;;5075474;28;20016;-67
2024/01/15 10:28:03;;;;;;;1360.82;999.90;;;30.30;99.90;;;;;;5075316;28;20405;-68
2024/01/15 10:30:30;;;;;;;1358.25;999.90;;;30.20;99.90;;;;;;5071472;28;20091;-68
2024/01/15 10:33:01;;;;;;;1360.03;999.90;;;30.30;99.90;;;;;;5065571;28;20485;-69
2024/01/15 10:35:30;;;;;;;1359.85;999.90;;;30.20;99.90;;;;;;5060775;28;20031;-68
2024/01/15 10:37:57;;;;;;;1368.95;999.90;;;30.20;99.90;;;;;;5055449;28;20087;-69
2024/01/15 10:40:24;;;;;;;1355.63;999.90;;;30.20;99.90;;;;;;5055488;28;20026;-69
2024/01/15 10:42:50;;;;;;;1357.78;999.90;;;30.10;99.90;;;;;;5055250;28;20539;-69
2024/01/15 10:45:18;;;;;;;1363.95;999.90;;;30.10;99.90;;;;;;5055067;28;20029;-70
2024/01/15 10:47:44;;;;;;;1371.72;999.90;;;30.10;99.90;;;;;;5055244;28;20477;-75
2024/01/15 10:50:11;;;;;;;1361.43;999.90;;;30.10;99.90;;;;;;5053982;28;20465;-72
2024/01/15 10:52:40;;;;;;;1350.53;999.90;;;30.00;99.90;;;;;;5055362;28;20025;-72
2024/01/15 10:55:09;;;;;;;1365.72;999.90;;;30.00;99.90;;;;;;5055064;28;20025;-73
2024/01/15 10:57:37;;;;;;;1363.40;999.90;;;30.00;99.90;;;;;;5055237;28;20111;-75
2024/01/15 11:00:06;;;;;;;1336.80;999.90;;;29.90;99.90;;;;;;5064438;28;20043;-74
2024/01/15 11:02:34;;;;;;;1277.05;999.90;;;29.90;99.90;;;;;;5075004;28;20107;-75
2024/01/15 11:05:01;;;;;;;1321.15;999.90;;;29.90;99.90;;;;;;5074618;28;20025;-71
2024/01/15 11:07:29;;;;;;;1368.30;999.90;;;29.70;99.90;;;;;;5074882;28;20024;-69
2024/01/15 11:09:58;;;;;;;1358.88;999.90;;;29.70;99.90;;;;;;5072561;28;21212;-72
2024/01/15 11:12:25;;;;;;;1363.32;999.90;;;29.70;99.90;;;;;;5074489;28;20024;-70
2024/01/15 11:14:54;;;;;;;1353.30;999.90;;;29.70;99.90;;;;;;5074767;28;20024;-71
2024/01/15 11:17:21;;;;;;;1333.38;999.90;;;29.70;99.90;;;;;;5074773;28;20029;-71
2024/01/15 11:19:51;;;;;;;1379.13;999.90;;;29.70;99.90;;;;;;5074155;28;20393;-72
2024/01/15 11:22:48;;;;;;;1363.35;999.90;;;29.60;99.90;;;;;;5066453;28;20124;-72
2024/01/15 11:25:15;;;;;;;1357.97;999.90;;;29.60;99.90;;;;;;5055548;28;20017;-71
2024/01/15 11:27:47;;;;;;;1356.72;999.90;;;29.60;99.90;;;;;;5053713;28;20025;-69
2024/01/15 11:30:15;;;;;;;1360.63;999.90;;;29.60;99.90;;;;;;5069931;28;20028;-68
2024/01/15 11:32:42;;;;;;;1353.03;999.90;;;29.50;99.90;;;;;;5072103;28;20049;-69
2024/01/15 11:35:10;;;;;;;1366.15;999.90;;;29.50;99.90;;;;;;5062631;28;20051;-71
2024/01/15 11:37:57;;;;;;;1353.78;999.90;;;29.40;99.90;;;;;;5064139;28;20029;-70
2024/01/15 11:40:33;;;;;;;1343.13;999.90;;;29.40;99.90;;;;;;5062993;28;20024;-68
2024/01/15 11:43:00;;;;;;;1365.78;999.90;;;29.40;99.90;;;;;;5063773;28;20037;-70
2024/01/15 11:45:27;;;;;;;1362.30;999.90;;;29.40;99.90;;;;;;5062582;28;20096;-71
2024/01/15 11:47:55;;;;;;;1369.25;999.90;;;29.50;99.90;;;;;;5063875;28;20027;-71
2024/01/15 11:50:22;;;;;;;1357.47;999.90;;;29.50;99.90;;;;;;5064500;28;20052;-70
2024/01/15 11:53:01;;;;;;;1351.22;999.90;;;29.40;99.90;;;;;;5062245;28;20363;-69
2024/01/15 11:55:34;;;;;;;1340.90;999.90;;;29.30;99.90;;;;;;5062235;28;20104;-69
2024/01/15 11:58:03;;;;;;;1350.60;999.90;;;29.30;99.90;;;;;;5063957;28;20476;-70